Time;durP1;ratioP1;P1;durP2;ratioP2;P2;SDS_P1;SDS_P2;PMS_P1;PMS_P2;Temp;Humidity;BMP_temperature;BMP_pressure;BME280_temperature;BME280_humidity;BME280_pressure;Samples;Min_cycle;Max_cycle;Signal;HPM_P1;HPM_P2
2022/05/10 00:00:20;;;;;;;;;;;;;;;18.34;55.23;101743.63;1033917;28;674;-63
2022/05/10 00:01:10;;;;;;;;;;;;;;;18.35;54.33;101749.88;1032858;28;627;-63
2022/05/10 00:02:01;;;;;;;;;;;;;;;18.33;55.16;101747.31;1033876;28;1729;-62
2022/05/10 00:02:51;;;;;;;;;;;;;;;18.33;54.50;101746.44;1034056;28;681;-63
2022/05/10 00:03:42;;;;;;;;;;;;;;;18.33;54.85;101741.06;1033492;28;701;-63
2022/05/10 00:04:32;;;;;;;;;;;;;;;18.32;55.11;101751.00;1032753;28;607;-62
2022/05/10 00:05:24;;;;;;;;;;;;;;;18.31;54.26;101738.47;1034472;28;698;-63
2022/05/10 00:06:14;;;;;;;;;;;;;;;18.32;55.13;101740.19;1034062;28;670;-63
2022/05/10 00:07:05;;;;;;;;;;;;;;;18.31;54.51;101741.19;1033931;28;649;-63
2022/05/10 00:07:55;;;;;;;;;;;;;;;18.32;54.71;101740.19;1029666;28;737;-62
2022/05/10 00:08:45;;;;;;;;;;;;;;;18.31;54.88;101738.47;1030194;28;597;-62
2022/05/10 00:09:36;;;;;;;;;;;;;;;18.31;54.37;101735.78;1027839;28;1671;-63
2022/05/10 00:10:26;;;;;;;;;;;;;;;18.31;55.38;101743.88;1029894;28;644;-62
2022/05/10 00:11:17;;;;;;;;;;;;;;;18.30;54.95;101733.22;1032549;28;1679;-63
2022/05/10 00:12:07;;;;;;;;;;;;;;;18.30;55.17;101742.16;1030440;28;1875;-62
2022/05/10 00:12:57;;;;;;;;;;;;;;;18.29;54.87;101729.66;1032929;28;693;-63
2022/05/10 00:13:48;;;;;;;;;;;;;;;18.29;55.07;101732.34;1030870;28;739;-62
2022/05/10 00:14:39;;;;;;;;;;;;;;;18.29;54.81;101731.50;1031310;28;674;-62
2022/05/10 00:15:29;;;;;;;;;;;;;;;18.30;54.68;101727.81;1030040;28;712;-62
2022/05/10 00:16:20;;;;;;;;;;;;;;;18.29;54.61;101729.66;1030707;28;729;-62
2022/05/10 00:17:10;;;;;;;;;;;;;;;18.28;55.15;101725.25;1035062;28;812;-62
2022/05/10 00:18:01;;;;;;;;;;;;;;;18.29;54.91;101728.78;1034107;28;694;-62
2022/05/10 00:18:51;;;;;;;;;;;;;;;18.27;54.46;101717.31;1028256;28;678;-62
2022/05/10 00:19:42;;;;;;;;;;;;;;;18.27;55.45;101720.81;1029841;28;681;-62
2022/05/10 00:20:32;;;;;;;;;;;;;;;18.28;54.52;101725.25;1029950;28;816;-62
2022/05/10 00:21:22;;;;;;;;;;;;;;;18.27;54.43;101718.13;1034127;28;1690;-62
2022/05/10 00:22:13;;;;;;;;;;;;;;;18.26;55.21;101720.97;1033317;28;635;-62
2022/05/10 00:23:03;;;;;;;;;;;;;;;18.25;55.46;101714.72;1033485;28;1659;-62
2022/05/10 00:23:54;;;;;;;;;;;;;;;18.26;55.17;101719.16;1032951;28;682;-62
2022/05/10 00:24:44;;;;;;;;;;;;;;;18.25;54.99;101712.03;1033442;28;650;-62
2022/05/10 00:26:13;;;;;;;;;;;;;;;18.25;54.82;101711.16;1027759;28;1373;-62
2022/05/10 00:27:03;;;;;;;;;;;;;;;18.24;55.45;101710.31;1030332;28;649;-63
2022/05/10 00:27:57;;;;;;;;;;;;;;;18.23;54.58;101705.91;1032058;28;693;-63
2022/05/10 00:29:05;;;;;;;;;;;;;;;18.23;54.98;101710.44;1091521;23;1761;-63
2022/05/10 00:29:55;;;;;;;;;;;;;;;18.24;55.37;101706.75;1029542;28;637;-63
2022/05/10 00:30:46;;;;;;;;;;;;;;;18.24;54.57;101702.22;1029031;28;669;-61
2022/05/10 00:31:36;;;;;;;;;;;;;;;18.23;54.93;101705.91;1033384;28;658;-61
2022/05/10 00:32:26;;;;;;;;;;;;;;;18.23;54.87;101708.59;1032577;28;1978;-62
2022/05/10 00:33:17;;;;;;;;;;;;;;;18.23;54.65;101702.34;1032958;28;1726;-62
2022/05/10 00:34:07;;;;;;;;;;;;;;;18.25;54.77;101700.38;1032656;28;615;-62
2022/05/10 00:34:58;;;;;;;;;;;;;;;18.24;54.69;101710.31;1030260;28;666;-61
2022/05/10 00:35:48;;;;;;;;;;;;;;;18.23;55.26;101703.19;1030139;28;757;-62
2022/05/10 00:36:38;;;;;;;;;;;;;;;18.22;55.29;101700.63;1032700;28;607;-62
2022/05/10 00:37:29;;;;;;;;;;;;;;;18.22;54.99;101696.09;1033880;28;634;-62
2022/05/10 00:38:19;;;;;;;;;;;;;;;18.21;54.75;101697.06;1032379;28;778;-62
2022/05/10 00:39:10;;;;;;;;;;;;;;;18.22;55.47;101689.84;1033431;28;674;-62
2022/05/10 00:40:00;;;;;;;;;;;;;;;18.22;54.92;101697.94;1032746;28;556;-62
2022/05/10 00:40:50;;;;;;;;;;;;;;;18.21;55.08;101701.63;1032636;28;674;-63
2022/05/10 00:41:41;;;;;;;;;;;;;;;18.21;55.29;101699.78;1033291;28;690;-62
2022/05/10 00:42:31;;;;;;;;;;;;;;;18.21;55.11;101697.06;1032658;28;698;-62
2022/05/10 00:43:22;;;;;;;;;;;;;;;18.21;54.78;101702.47;1030189;28;654;-62
2022/05/10 00:44:12;;;;;;;;;;;;;;;18.20;55.06;101698.06;1028940;28;682;-62
2022/05/10 00:45:02;;;;;;;;;;;;;;;18.20;55.50;101694.50;1032378;28;1706;-63
2022/05/10 00:45:53;;;;;;;;;;;;;;;18.18;55.49;101700.03;1033213;28;674;-62
2022/05/10 00:46:43;;;;;;;;;;;;;;;18.19;55.04;101696.34;1033232;28;639;-62
2022/05/10 00:47:34;;;;;;;;;;;;;;;18.20;54.55;101697.19;1033248;28;709;-62
2022/05/10 00:48:24;;;;;;;;;;;;;;;18.19;55.37;101693.66;1033279;28;607;-63
2022/05/10 00:49:15;;;;;;;;;;;;;;;18.18;54.63;101694.63;1032646;28;615;-62
2022/05/10 00:50:05;;;;;;;;;;;;;;;18.17;54.50;101694.75;1032782;28;662;-62
2022/05/10 00:50:55;;;;;;;;;;;;;;;18.17;54.70;101695.59;1032555;28;1245;-62
2022/05/10 00:51:46;;;;;;;;;;;;;;;18.17;54.75;101686.66;1033465;28;745;-63
2022/05/10 00:52:36;;;;;;;;;;;;;;;18.17;55.32;101692.06;1032829;28;666;-62
2022/05/10 00:53:27;;;;;;;;;;;;;;;18.19;55.23;101695.47;1030054;28;632;-62
2022/05/10 00:54:17;;;;;;;;;;;;;;;18.16;55.36;101696.59;1029612;28;709;-62
2022/05/10 00:55:07;;;;;;;;;;;;;;;18.16;55.31;101691.19;1029730;28;678;-61
2022/05/10 00:55:58;;;;;;;;;;;;;;;18.16;54.95;101688.50;1026516;28;670;-62
2022/05/10 00:56:48;;;;;;;;;;;;;;;18.17;54.48;101692.06;1026642;28;607;-62
2022/05/10 00:57:39;;;;;;;;;;;;;;;18.16;54.81;101693.91;1030183;28;674;-61
2022/05/10 00:58:29;;;;;;;;;;;;;;;18.16;55.17;101691.19;1029791;28;701;-62
2022/05/10 00:59:19;;;;;;;;;;;;;;;18.15;54.59;101689.47;1026514;28;630;-61
2022/05/10 01:00:10;;;;;;;;;;;;;;;18.15;54.76;101686.78;1025945;28;879;-62
2022/05/10 01:01:00;;;;;;;;;;;;;;;18.15;55.08;101680.53;1030435;28;678;-62
2022/05/10 01:01:51;;;;;;;;;;;;;;;18.13;55.56;101680.66;1029636;28;651;-62
2022/05/10 01:02:41;;;;;;;;;;;;;;;18.14;55.01;101686.91;1030878;28;717;-63
2022/05/10 01:03:31;;;;;;;;;;;;;;;18.14;54.94;101678.81;1029698;28;627;-62
2022/05/10 01:04:23;;;;;;;;;;;;;;;18.13;54.79;101679.81;1029261;28;627;-62
2022/05/10 01:05:14;;;;;;;;;;;;;;;18.12;54.65;101678.94;1030857;28;626;-63
2022/05/10 01:06:04;;;;;;;;;;;;;;;18.13;55.25;101682.50;1029248;28;701;-63
2022/05/10 01:06:55;;;;;;;;;;;;;;;18.12;54.83;101684.34;1030152;28;689;-63
2022/05/10 01:07:49;;;;;;;;;;;;;;;18.12;55.39;101676.25;1029123;28;635;-63
2022/05/10 01:08:39;;;;;;;;;;;;;;;18.12;55.19;101684.34;1025505;28;659;-63
2022/05/10 01:09:30;;;;;;;;;;;;;;;18.12;55.39;101688.88;1025994;28;686;-63
2022/05/10 01:10:20;;;;;;;;;;;;;;;18.11;54.71;101685.31;1024694;28;642;-63
2022/05/10 01:11:10;;;;;;;;;;;;;;;18.12;55.37;101680.78;1025912;28;1652;-63
2022/05/10 01:12:01;;;;;;;;;;;;;;;18.11;55.70;101674.53;1024725;28;730;-63
2022/05/10 01:12:51;;;;;;;;;;;;;;;18.11;55.61;101679.94;1024838;29;604;-63
2022/05/10 01:13:42;;;;;;;;;;;;;;;18.10;54.83;101670.13;1029149;28;635;-62
2022/05/10 01:14:32;;;;;;;;;;;;;;;18.10;55.17;101674.66;1030167;28;804;-62
2022/05/10 01:15:23;;;;;;;;;;;;;;;18.10;55.61;101670.13;1032752;28;1717;-62
2022/05/10 01:16:13;;;;;;;;;;;;;;;18.10;54.92;101674.66;1034304;28;670;-62
2022/05/10 01:17:04;;;;;;;;;;;;;;;18.10;55.12;101667.41;1034557;28;623;-62
2022/05/10 01:17:54;;;;;;;;;;;;;;;18.10;55.31;101666.56;1035758;28;705;-62
2022/05/10 01:18:45;;;;;;;;;;;;;;;18.10;54.93;101663.88;1035857;28;768;-63
2022/05/10 01:19:35;;;;;;;;;;;;;;;18.08;55.32;101661.31;1035078;28;646;-62
2022/05/10 01:20:25;;;;;;;;;;;;;;;18.08;55.38;101666.72;1033349;28;662;-62
2022/05/10 01:21:16;;;;;;;;;;;;;;;18.07;54.97;101665.00;1033281;28;1749;-63
2022/05/10 01:22:06;;;;;;;;;;;;;;;18.08;54.87;101661.31;1032902;28;705;-65
2022/05/10 01:22:57;;;;;;;;;;;;;;;18.07;55.27;101658.75;1037666;28;611;-62
2022/05/10 01:23:48;;;;;;;;;;;;;;;18.06;54.98;101663.28;1037707;28;709;-63
2022/05/10 01:24:41;;;;;;;;;;;;;;;18.07;55.29;101656.91;1033616;28;658;-61
2022/05/10 01:25:31;;;;;;;;;;;;;;;18.07;55.74;101650.66;1035474;28;623;-63
2022/05/10 01:26:22;;;;;;;;;;;;;;;18.07;55.44;101650.66;1034316;28;651;-63
2022/05/10 01:27:12;;;;;;;;;;;;;;;18.07;54.85;101642.56;1032715;28;663;-63
2022/05/10 01:28:03;;;;;;;;;;;;;;;18.07;55.36;101651.53;1030355;28;714;-62
2022/05/10 01:28:53;;;;;;;;;;;;;;;18.06;54.77;101646.25;1032688;28;1247;-63
2022/05/10 01:29:44;;;;;;;;;;;;;;;18.06;54.95;101647.09;1033119;28;651;-61
2022/05/10 01:30:34;;;;;;;;;;;;;;;18.06;54.54;101641.72;1033648;28;689;-62
2022/05/10 01:31:25;;;;;;;;;;;;;;;18.06;55.38;101643.56;1026035;28;1500;-61
2022/05/10 01:33:30;;;;;;;;;;;;;;;18.04;54.79;101636.44;1025038;29;639;-62
2022/05/10 01:34:21;;;;;;;;;;;;;;;18.05;54.90;101631.91;1025020;29;671;-62
2022/05/10 01:35:11;;;;;;;;;;;;;;;18.03;55.45;101637.44;1024436;29;695;-62
2022/05/10 01:36:01;;;;;;;;;;;;;;;18.05;55.56;101637.31;1024365;29;676;-62
2022/05/10 01:36:52;;;;;;;;;;;;;;;18.05;54.78;101642.69;1024361;29;683;-63
2022/05/10 01:37:42;;;;;;;;;;;;;;;18.06;55.74;101638.16;1025048;29;745;-62
2022/05/10 01:38:33;;;;;;;;;;;;;;;18.04;54.84;101638.28;1024497;29;682;-62
2022/05/10 01:39:23;;;;;;;;;;;;;;;18.04;55.67;101632.88;1024485;29;691;-62
2022/05/10 01:40:13;;;;;;;;;;;;;;;18.03;55.73;101642.81;1024474;29;651;-62
2022/05/10 01:41:04;;;;;;;;;;;;;;;18.03;54.73;101639.25;1022525;28;1691;-62
2022/05/10 01:41:54;;;;;;;;;;;;;;;18.03;55.01;101640.13;1029400;28;671;-62
2022/05/10 01:42:45;;;;;;;;;;;;;;;18.03;54.77;101637.44;1033327;28;666;-61
2022/05/10 01:43:35;;;;;;;;;;;;;;;18.03;55.19;101636.56;1033804;28;639;-61
2022/05/10 01:44:26;;;;;;;;;;;;;;;18.03;55.26;101631.16;1033060;28;643;-61
2022/05/10 01:45:16;;;;;;;;;;;;;;;18.02;54.73;101630.31;1033413;28;770;-61
2022/05/10 01:46:06;;;;;;;;;;;;;;;18.02;55.06;101632.16;1032348;28;620;-62
2022/05/10 01:46:57;;;;;;;;;;;;;;;18.01;55.66;101625.91;1033602;28;713;-61
2022/05/10 01:47:47;;;;;;;;;;;;;;;18.01;55.40;101625.91;1033413;28;628;-61
2022/05/10 01:48:38;;;;;;;;;;;;;;;18.02;55.51;101622.22;1033057;28;686;-61
2022/05/10 01:49:28;;;;;;;;;;;;;;;18.01;55.14;101628.59;1033187;28;659;-61
2022/05/10 01:50:18;;;;;;;;;;;;;;;18.02;54.68;101626.75;1033069;28;675;-61
2022/05/10 01:51:09;;;;;;;;;;;;;;;18.02;55.44;101618.66;1032193;28;1653;-61
2022/05/10 01:51:59;;;;;;;;;;;;;;;18.01;55.01;101619.66;1033699;28;808;-61
2022/05/10 01:52:50;;;;;;;;;;;;;;;18.01;55.63;101617.81;1033632;28;663;-61
2022/05/10 01:53:40;;;;;;;;;;;;;;;17.99;54.77;101614.38;1032428;28;683;-61
2022/05/10 01:54:30;;;;;;;;;;;;;;;18.00;55.57;101618.78;1030015;28;652;-61
2022/05/10 01:55:21;;;;;;;;;;;;;;;17.99;54.81;101614.38;1028839;28;669;-61
2022/05/10 01:56:11;;;;;;;;;;;;;;;17.99;55.36;101614.38;1032808;28;637;-61
2022/05/10 01:57:02;;;;;;;;;;;;;;;18.00;55.76;101617.94;1032425;28;638;-61
2022/05/10 01:57:52;;;;;;;;;;;;;;;17.99;55.17;101618.91;1032364;28;698;-61
2022/05/10 01:58:42;;;;;;;;;;;;;;;17.99;55.20;101609.00;1033132;28;670;-61
2022/05/10 01:59:33;;;;;;;;;;;;;;;17.99;55.63;101613.53;1032416;28;679;-61
2022/05/10 02:00:23;;;;;;;;;;;;;;;17.99;54.94;101608.13;1032336;28;681;-61
2022/05/10 02:01:14;;;;;;;;;;;;;;;17.99;55.44;101610.84;1024872;29;663;-62
2022/05/10 02:02:04;;;;;;;;;;;;;;;17.99;55.28;101610.84;1024298;29;691;-62
2022/05/10 02:02:55;;;;;;;;;;;;;;;17.98;55.10;101606.41;1025179;29;679;-62
2022/05/10 02:03:45;;;;;;;;;;;;;;;17.98;55.56;101612.66;1020819;29;718;-63
2022/05/10 02:04:35;;;;;;;;;;;;;;;17.99;54.89;101609.00;1022604;28;686;-63
2022/05/10 02:05:26;;;;;;;;;;;;;;;17.99;55.62;101610.84;1025726;28;645;-63
2022/05/10 02:06:16;;;;;;;;;;;;;;;17.98;55.16;101612.66;1024259;29;675;-62
2022/05/10 02:07:07;;;;;;;;;;;;;;;17.99;55.30;101602.75;1025199;29;643;-62
2022/05/10 02:07:57;;;;;;;;;;;;;;;17.98;55.37;101609.97;1030967;28;1755;-62
2022/05/10 02:08:47;;;;;;;;;;;;;;;17.98;54.98;101612.66;1032388;28;642;-62
2022/05/10 02:09:38;;;;;;;;;;;;;;;17.97;55.71;101604.69;1033080;28;701;-62
2022/05/10 02:10:28;;;;;;;;;;;;;;;17.96;54.91;101603.84;1032948;28;627;-62
2022/05/10 02:11:19;;;;;;;;;;;;;;;17.97;55.31;101604.69;1033726;28;631;-62
2022/05/10 02:12:09;;;;;;;;;;;;;;;17.97;55.34;101604.69;1032472;28;1907;-62
2022/05/10 02:13:00;;;;;;;;;;;;;;;17.95;55.69;101602.13;1030368;28;1729;-62
2022/05/10 02:13:50;;;;;;;;;;;;;;;17.95;55.40;101607.53;1028919;28;639;-62
2022/05/10 02:14:40;;;;;;;;;;;;;;;17.97;55.59;101599.31;1028864;28;1651;-62
2022/05/10 02:15:31;;;;;;;;;;;;;;;17.96;55.15;101603.84;1024216;29;667;-63
2022/05/10 02:16:21;;;;;;;;;;;;;;;17.96;55.13;101598.47;1025283;28;619;-62
2022/05/10 02:17:12;;;;;;;;;;;;;;;17.95;54.69;101601.28;1029344;28;797;-62
2022/05/10 02:18:02;;;;;;;;;;;;;;;17.96;55.28;101597.59;1028901;28;611;-62
2022/05/10 02:18:52;;;;;;;;;;;;;;;17.96;54.86;101597.59;1028836;28;639;-63
2022/05/10 02:19:43;;;;;;;;;;;;;;;17.95;55.14;101599.44;1028631;28;650;-63
2022/05/10 02:20:33;;;;;;;;;;;;;;;17.95;55.38;101598.59;1028273;28;679;-62
2022/05/10 02:21:24;;;;;;;;;;;;;;;17.95;54.70;101598.59;1029062;28;623;-62
2022/05/10 02:22:14;;;;;;;;;;;;;;;17.95;54.97;101595.88;1029605;28;650;-63
2022/05/10 02:23:05;;;;;;;;;;;;;;;17.93;55.15;101593.31;1028854;28;628;-62
2022/05/10 02:23:55;;;;;;;;;;;;;;;17.95;55.01;101598.59;1028327;28;668;-62
2022/05/10 02:24:46;;;;;;;;;;;;;;;17.95;55.33;101602.13;1028936;28;543;-62
2022/05/10 02:25:36;;;;;;;;;;;;;;;17.94;54.98;101596.88;1020725;29;651;-62
2022/05/10 02:26:27;;;;;;;;;;;;;;;17.95;55.21;101595.88;1020633;29;687;-62
2022/05/10 02:27:17;;;;;;;;;;;;;;;17.93;55.53;101595.16;1027512;28;1664;-62
2022/05/10 02:28:07;;;;;;;;;;;;;;;17.93;54.73;101597.84;1028872;28;667;-62
2022/05/10 02:28:58;;;;;;;;;;;;;;;17.94;55.81;101588.78;1031993;28;1116;-62
2022/05/10 02:29:48;;;;;;;;;;;;;;;17.94;55.67;101588.78;1033847;28;615;-63
2022/05/10 02:30:39;;;;;;;;;;;;;;;17.94;54.71;101588.78;1032343;28;644;-63
2022/05/10 02:31:29;;;;;;;;;;;;;;;17.94;55.24;101589.63;1029005;28;647;-63
2022/05/10 02:33:29;;;;;;;;;;;;;;;17.93;55.41;101581.66;1032859;28;611;-63
2022/05/10 02:34:19;;;;;;;;;;;;;;;17.92;54.94;101588.91;1035839;28;697;-64
2022/05/10 02:35:10;;;;;;;;;;;;;;;17.93;54.70;101581.66;1037531;28;670;-64
2022/05/10 02:36:00;;;;;;;;;;;;;;;17.91;55.79;101583.66;1033869;28;677;-63
2022/05/10 02:36:50;;;;;;;;;;;;;;;17.92;55.54;101590.75;1034488;28;690;-64
2022/05/10 02:37:41;;;;;;;;;;;;;;;17.93;54.90;101587.91;1029503;28;1683;-63
2022/05/10 02:38:31;;;;;;;;;;;;;;;17.93;55.45;101587.06;1030130;28;737;-63
2022/05/10 02:39:22;;;;;;;;;;;;;;;17.91;55.67;101584.53;1028895;28;655;-63
2022/05/10 02:40:12;;;;;;;;;;;;;;;17.93;55.18;101581.66;1028937;28;647;-63
2022/05/10 02:41:03;;;;;;;;;;;;;;;17.93;54.74;101587.06;1028869;28;600;-63
2022/05/10 02:41:53;;;;;;;;;;;;;;;17.92;54.96;101586.22;1029134;28;655;-63
2022/05/10 02:42:43;;;;;;;;;;;;;;;17.92;55.69;101583.50;1028033;28;639;-63
2022/05/10 02:43:34;;;;;;;;;;;;;;;17.92;55.47;101580.81;1029654;28;622;-63
2022/05/10 02:44:24;;;;;;;;;;;;;;;17.91;55.68;101584.53;1025615;28;638;-63
2022/05/10 02:45:18;;;;;;;;;;;;;;;17.91;54.88;101578.28;1025875;28;698;-64
2022/05/10 02:46:08;;;;;;;;;;;;;;;17.90;55.93;101577.41;1028984;28;686;-64
2022/05/10 02:46:58;;;;;;;;;;;;;;;17.92;55.19;101585.34;1029458;28;682;-63
2022/05/10 02:47:49;;;;;;;;;;;;;;;17.92;55.26;101583.50;1029463;28;658;-63
2022/05/10 02:48:39;;;;;;;;;;;;;;;17.92;55.75;101579.97;1028983;28;690;-63
2022/05/10 02:49:30;;;;;;;;;;;;;;;17.91;55.03;101575.56;1030750;28;666;-63
2022/05/10 02:50:20;;;;;;;;;;;;;;;17.90;55.25;101574.72;1029306;28;705;-63
2022/05/10 02:51:11;;;;;;;;;;;;;;;17.91;54.90;101578.28;1029448;28;647;-64
2022/05/10 02:52:01;;;;;;;;;;;;;;;17.89;55.21;101570.31;1026412;28;682;-63
2022/05/10 02:52:51;;;;;;;;;;;;;;;17.91;55.38;101573.75;1025190;28;644;-64
2022/05/10 02:53:42;;;;;;;;;;;;;;;17.91;55.26;101580.97;1026222;28;664;-64
2022/05/10 02:54:32;;;;;;;;;;;;;;;17.89;55.44;101575.72;1029517;28;843;-63
2022/05/10 02:55:23;;;;;;;;;;;;;;;17.91;55.10;101572.88;1030157;28;669;-64
2022/05/10 02:56:13;;;;;;;;;;;;;;;17.90;54.92;101577.41;1029993;28;654;-63
2022/05/10 02:57:04;;;;;;;;;;;;;;;17.90;55.30;101571.16;1030142;28;857;-63
2022/05/10 02:57:54;;;;;;;;;;;;;;;17.90;55.83;101573.88;1030067;28;663;-64
2022/05/10 02:58:44;;;;;;;;;;;;;;;17.90;55.77;101569.31;1030722;28;615;-64
2022/05/10 02:59:35;;;;;;;;;;;;;;;17.90;55.72;101565.78;1030147;28;608;-64
2022/05/10 03:00:25;;;;;;;;;;;;;;;17.90;55.24;101571.16;1029957;28;678;-64
2022/05/10 03:01:16;;;;;;;;;;;;;;;17.89;55.30;101561.38;1030235;28;642;-64
2022/05/10 03:02:06;;;;;;;;;;;;;;;17.89;55.30;101558.66;1029985;28;642;-64
2022/05/10 03:02:57;;;;;;;;;;;;;;;17.88;54.88;101560.50;1030751;28;655;-64
2022/05/10 03:03:47;;;;;;;;;;;;;;;17.88;55.81;101565.91;1029034;28;655;-64
2022/05/10 03:04:37;;;;;;;;;;;;;;;17.88;55.16;101559.66;1030800;28;722;-64
2022/05/10 03:05:28;;;;;;;;;;;;;;;17.88;55.42;101563.19;1030172;28;682;-64
2022/05/10 03:06:18;;;;;;;;;;;;;;;17.89;55.28;101559.53;1030119;28;607;-64
2022/05/10 03:07:09;;;;;;;;;;;;;;;17.89;55.98;101562.22;1030207;28;627;-64
2022/05/10 03:07:59;;;;;;;;;;;;;;;17.88;55.39;101551.56;1030050;28;607;-64
2022/05/10 03:08:50;;;;;;;;;;;;;;;17.89;55.28;101558.66;1032095;28;1682;-64
2022/05/10 03:09:40;;;;;;;;;;;;;;;17.88;55.56;101556.97;1034152;28;657;-64
2022/05/10 03:10:30;;;;;;;;;;;;;;;17.88;55.56;101551.56;1034190;28;650;-64
2022/05/10 03:11:22;;;;;;;;;;;;;;;17.86;55.18;101553.53;1032827;28;691;-64
2022/05/10 03:12:12;;;;;;;;;;;;;;;17.86;55.21;101554.38;1032874;28;1894;-64
2022/05/10 03:13:02;;;;;;;;;;;;;;;17.88;55.19;101556.97;1033552;28;642;-64
2022/05/10 03:13:53;;;;;;;;;;;;;;;17.87;54.74;101555.25;1030223;28;670;-63
2022/05/10 03:14:43;;;;;;;;;;;;;;;17.87;55.25;101552.53;1029216;28;729;-64
2022/05/10 03:15:34;;;;;;;;;;;;;;;17.88;55.83;101547.03;1033493;28;615;-64
2022/05/10 03:16:24;;;;;;;;;;;;;;;17.87;55.23;101549.84;1032930;28;623;-64
2022/05/10 03:17:15;;;;;;;;;;;;;;;17.87;55.36;101549.84;1034361;28;650;-64
2022/05/10 03:18:05;;;;;;;;;;;;;;;17.86;54.92;101542.75;1032945;28;710;-64
2022/05/10 03:18:56;;;;;;;;;;;;;;;17.85;55.26;101546.41;1032653;28;1666;-64
2022/05/10 03:19:46;;;;;;;;;;;;;;;17.86;54.89;101542.75;1034261;28;643;-64
2022/05/10 03:20:36;;;;;;;;;;;;;;;17.85;54.83;101541.03;1033903;28;1658;-64
2022/05/10 03:21:27;;;;;;;;;;;;;;;17.87;55.45;101547.16;1034071;28;599;-64
2022/05/10 03:22:17;;;;;;;;;;;;;;;17.86;55.45;101546.28;1033985;28;698;-64
2022/05/10 03:23:08;;;;;;;;;;;;;;;17.85;55.07;101536.50;1034057;28;677;-64
2022/05/10 03:23:58;;;;;;;;;;;;;;;17.85;55.18;101536.50;1034597;28;782;-64
2022/05/10 03:24:49;;;;;;;;;;;;;;;17.85;55.44;101536.50;1034774;28;615;-64
2022/05/10 03:25:39;;;;;;;;;;;;;;;17.84;55.41;101534.78;1033970;28;622;-64
2022/05/10 03:26:30;;;;;;;;;;;;;;;17.84;55.48;101533.91;1034836;28;564;-64
2022/05/10 03:27:20;;;;;;;;;;;;;;;17.85;55.87;101532.94;1034083;28;674;-63
2022/05/10 03:28:10;;;;;;;;;;;;;;;17.84;55.63;101536.63;1034460;28;622;-63
2022/05/10 03:29:01;;;;;;;;;;;;;;;17.84;55.76;101529.38;1029890;28;1135;-63
2022/05/10 03:29:51;;;;;;;;;;;;;;;17.82;55.71;101531.34;1025668;28;678;-63
2022/05/10 03:30:42;;;;;;;;;;;;;;;17.84;55.36;101526.69;1027038;28;667;-63
2022/05/10 03:31:32;;;;;;;;;;;;;;;17.85;55.47;101530.25;1029947;28;666;-64
2022/05/10 03:32:23;;;;;;;;;;;;;;;17.83;55.43;101524.97;1025859;28;1976;-63
2022/05/10 03:33:14;;;;;;;;;;;;;;;17.83;55.62;101522.28;1026510;28;678;-62
2022/05/10 03:35:15;;;;;;;;;;;;;;;17.85;55.19;101524.84;1029442;28;667;-62
2022/05/10 03:36:06;;;;;;;;;;;;;;;17.84;55.33;101525.84;1031625;28;644;-61
2022/05/10 03:36:57;;;;;;;;;;;;;;;17.83;55.54;101519.59;1030684;28;643;-61
2022/05/10 03:37:47;;;;;;;;;;;;;;;17.86;55.31;101529.25;1030616;28;658;-61
2022/05/10 03:38:37;;;;;;;;;;;;;;;17.83;55.79;101518.72;1031530;28;1706;-61
2022/05/10 03:39:28;;;;;;;;;;;;;;;17.84;55.13;101526.69;1033462;28;651;-62
2022/05/10 03:40:18;;;;;;;;;;;;;;;17.84;55.23;101523.13;1034034;28;666;-61
2022/05/10 03:41:09;;;;;;;;;;;;;;;17.84;55.43;101517.75;1032836;28;619;-62
2022/05/10 03:41:59;;;;;;;;;;;;;;;17.83;55.61;101522.28;1032770;28;615;-62
2022/05/10 03:42:49;;;;;;;;;;;;;;;17.83;55.57;101518.72;1032796;28;663;-62
2022/05/10 03:43:40;;;;;;;;;;;;;;;17.83;55.27;101513.34;1032879;28;615;-62
2022/05/10 03:44:30;;;;;;;;;;;;;;;17.83;54.99;101524.13;1032956;28;600;-62
2022/05/10 03:45:21;;;;;;;;;;;;;;;17.82;55.00;101523.25;1032850;28;658;-62
2022/05/10 03:46:11;;;;;;;;;;;;;;;17.82;55.93;101522.41;1035330;28;772;-62
2022/05/10 03:47:01;;;;;;;;;;;;;;;17.82;55.16;101525.97;1037321;28;1619;-62
2022/05/10 03:47:52;;;;;;;;;;;;;;;17.82;55.81;101528.66;1038002;28;625;-61
2022/05/10 03:48:44;;;;;;;;;;;;;;;17.83;55.61;101526.81;1034730;28;626;-62
2022/05/10 03:49:35;;;;;;;;;;;;;;;17.82;55.28;101517.00;1034807;28;617;-63
2022/05/10 03:50:25;;;;;;;;;;;;;;;17.83;55.48;101521.44;1033989;28;665;-63
2022/05/10 03:51:15;;;;;;;;;;;;;;;17.83;55.64;101526.81;1034035;28;622;-63
2022/05/10 03:52:06;;;;;;;;;;;;;;;17.83;55.75;101516.03;1032335;28;627;-62
2022/05/10 03:52:56;;;;;;;;;;;;;;;17.83;55.36;101516.03;1033335;28;685;-62
2022/05/10 03:53:47;;;;;;;;;;;;;;;17.81;55.30;101513.47;1032393;28;623;-62
2022/05/10 03:54:37;;;;;;;;;;;;;;;17.81;55.72;101516.16;1029162;28;658;-62
2022/05/10 03:55:28;;;;;;;;;;;;;;;17.82;55.29;101514.31;1030946;28;669;-62
2022/05/10 03:56:18;;;;;;;;;;;;;;;17.82;55.22;101514.31;1034020;28;583;-62
2022/05/10 03:57:09;;;;;;;;;;;;;;;17.81;55.15;101513.47;1033798;28;1741;-62
2022/05/10 03:57:59;;;;;;;;;;;;;;;17.81;55.51;101513.47;1034048;28;615;-62
2022/05/10 03:58:50;;;;;;;;;;;;;;;17.81;55.80;101512.59;1032744;28;640;-62
2022/05/10 03:59:43;;;;;;;;;;;;;;;17.81;56.03;101512.59;1033771;28;611;-63
2022/05/10 04:00:33;;;;;;;;;;;;;;;17.81;55.31;101507.22;1032699;28;603;-63
2022/05/10 04:01:24;;;;;;;;;;;;;;;17.80;55.71;101508.19;1032469;28;618;-62
2022/05/10 04:02:14;;;;;;;;;;;;;;;17.81;55.74;101509.91;1033800;28;662;-63
2022/05/10 04:03:05;;;;;;;;;;;;;;;17.81;55.32;101509.91;1032769;28;615;-62
2022/05/10 04:03:55;;;;;;;;;;;;;;;17.80;55.59;101502.81;1033669;28;654;-62
2022/05/10 04:04:45;;;;;;;;;;;;;;;17.80;55.53;101510.91;1032310;28;620;-62
2022/05/10 04:05:36;;;;;;;;;;;;;;;17.81;55.77;101512.59;1033527;28;595;-63
2022/05/10 04:06:26;;;;;;;;;;;;;;;17.81;55.82;101513.47;1033492;28;679;-62
2022/05/10 04:07:17;;;;;;;;;;;;;;;17.81;55.43;101508.06;1028792;28;627;-64
2022/05/10 04:08:07;;;;;;;;;;;;;;;17.81;54.93;101509.91;1029768;28;686;-63
2022/05/10 04:08:58;;;;;;;;;;;;;;;17.81;55.32;101510.75;1029880;28;643;-64
2022/05/10 04:09:48;;;;;;;;;;;;;;;17.80;55.41;101511.75;1028727;28;626;-63
2022/05/10 04:10:39;;;;;;;;;;;;;;;17.80;55.65;101508.19;1029392;28;735;-63
2022/05/10 04:11:29;;;;;;;;;;;;;;;17.80;55.15;101509.06;1029978;28;686;-64
2022/05/10 04:12:19;;;;;;;;;;;;;;;17.80;54.97;101509.06;1029816;28;1962;-64
2022/05/10 04:13:10;;;;;;;;;;;;;;;17.80;55.60;101510.91;1030471;28;642;-63
2022/05/10 04:14:00;;;;;;;;;;;;;;;17.79;55.58;101510.03;1029256;28;628;-64
2022/05/10 04:14:51;;;;;;;;;;;;;;;17.79;55.52;101509.19;1029849;28;1051;-64
2022/05/10 04:15:41;;;;;;;;;;;;;;;17.80;55.14;101508.19;1029358;28;652;-64
2022/05/10 04:16:32;;;;;;;;;;;;;;;17.79;55.26;101498.41;1029881;28;627;-64
2022/05/10 04:17:22;;;;;;;;;;;;;;;17.79;55.73;101503.78;1029667;28;706;-64
2022/05/10 04:18:13;;;;;;;;;;;;;;;17.79;54.98;101504.66;1029927;28;638;-64
2022/05/10 04:19:03;;;;;;;;;;;;;;;17.79;54.88;101498.41;1030460;28;781;-64
2022/05/10 04:19:53;;;;;;;;;;;;;;;17.78;55.55;101502.06;1029925;28;694;-64
2022/05/10 04:20:44;;;;;;;;;;;;;;;17.79;55.81;101501.09;1029909;28;622;-63
2022/05/10 04:21:34;;;;;;;;;;;;;;;17.79;55.15;101501.94;1025859;28;694;-63
2022/05/10 04:22:25;;;;;;;;;;;;;;;17.78;55.37;101504.78;1026000;28;642;-63
2022/05/10 04:23:16;;;;;;;;;;;;;;;17.79;55.11;101503.78;1030751;28;657;-63
2022/05/10 04:24:07;;;;;;;;;;;;;;;17.79;55.85;101509.19;1030051;28;629;-63
2022/05/10 04:24:57;;;;;;;;;;;;;;;17.78;55.32;101508.31;1028833;28;1687;-63
2022/05/10 04:25:47;;;;;;;;;;;;;;;17.78;55.45;101505.63;1029829;28;623;-63
2022/05/10 04:26:38;;;;;;;;;;;;;;;17.79;55.82;101509.19;1029891;28;654;-63
2022/05/10 04:27:29;;;;;;;;;;;;;;;17.78;55.40;101507.47;1029812;28;639;-63
2022/05/10 04:28:19;;;;;;;;;;;;;;;17.78;55.36;101511.03;1030456;28;608;-63
2022/05/10 04:29:10;;;;;;;;;;;;;;;17.78;55.17;101507.47;1029914;28;638;-63
2022/05/10 04:30:00;;;;;;;;;;;;;;;17.79;54.89;101503.78;1025464;28;651;-63